Time;durP1;ratioP1;P1;durP2;ratioP2;P2;SDS_P1;SDS_P2;PMS_P1;PMS_P2;Temp;Humidity;BMP_temperature;BMP_pressure;BME280_temperature;BME280_humidity;BME280_pressure;Samples;Min_cycle;Max_cycle;Signal;HPM_P1;HPM_P2
2023/10/09 00:01:50;;;;;;;0.10;0.10;;;15.20;99.90;;;;;;4960175;28;20191;-81
2023/10/09 00:04:17;;;;;;;0.10;0.10;;;15.00;99.90;;;;;;4961712;28;20220;-81
2023/10/09 00:06:43;;;;;;;0.10;0.10;;;14.80;99.90;;;;;;4959430;28;20212;-81
2023/10/09 00:09:30;;;;;;;0.10;0.10;;;15.00;99.90;;;;;;4961806;28;20236;-81
2023/10/09 00:12:00;;;;;;;0.10;0.10;;;15.10;99.90;;;;;;4962882;28;20196;-81
2023/10/09 00:14:30;;;;;;;0.10;0.10;;;15.10;99.90;;;;;;4960067;28;20605;-81
2023/10/09 00:17:17;;;;;;;0.10;0.10;;;15.20;99.90;;;;;;4975918;28;20183;-81
2023/10/09 00:19:44;;;;;;;0.10;0.10;;;15.20;99.90;;;;;;4961617;28;20185;-81
2023/10/09 00:22:25;;;;;;;0.10;0.10;;;15.20;99.90;;;;;;4962228;28;20181;-81
2023/10/09 00:25:11;;;;;;;0.03;0.03;;;15.10;99.90;;;;;;4959440;28;20184;-81
2023/10/09 00:27:42;;;;;;;0.10;0.10;;;15.20;99.90;;;;;;4975486;28;20201;-80
2023/10/09 00:30:09;;;;;;;0.10;0.10;;;15.20;99.90;;;;;;4960343;28;20177;-81
2023/10/09 00:32:37;;;;;;;0.10;0.10;;;15.10;99.90;;;;;;4960321;28;20280;-81
2023/10/09 00:35:36;;;;;;;0.10;0.10;;;15.10;99.90;;;;;;4961618;28;20184;-81
2023/10/09 00:37:51;;;;;;;0.10;0.10;;;15.20;99.90;;;;;;4959461;28;20596;-81
2023/10/09 00:40:23;;;;;;;0.10;0.10;;;15.20;99.90;;;;;;4961169;28;20184;-81
2023/10/09 00:42:49;;;;;;;0.10;0.10;;;14.90;99.90;;;;;;4960025;28;20298;-80
2023/10/09 00:45:24;;;;;;;0.10;0.10;;;15.00;99.90;;;;;;4958975;28;20275;-80
2023/10/09 00:47:51;;;;;;;0.10;0.10;;;15.10;99.90;;;;;;4961404;28;20211;-80
2023/10/09 00:52:51;;;;;;;0.10;0.10;;;15.10;99.90;;;;;;4973595;28;20208;-81
2023/10/09 00:58:12;;;;;;;0.10;0.10;;;15.20;99.90;;;;;;4964400;28;20231;-81
2023/10/09 01:05:51;;;;;;;0.10;0.10;;;14.90;99.90;;;;;;4963964;28;20254;-81
2023/10/09 01:08:30;;;;;;;0.10;0.10;;;15.00;99.90;;;;;;4962989;28;20227;-81
2023/10/09 01:11:09;;;;;;;0.10;0.10;;;15.00;99.90;;;;;;4963625;28;20264;-81
2023/10/09 01:13:52;;;;;;;0.10;0.10;;;15.00;99.90;;;;;;4963505;28;20213;-81
2023/10/09 01:16:22;;;;;;;0.10;0.10;;;15.10;99.90;;;;;;4963277;28;20180;-81
2023/10/09 01:18:58;;;;;;;0.03;0.03;;;15.20;99.90;;;;;;4977974;28;20193;-81
2023/10/09 01:21:25;;;;;;;0.10;0.10;;;15.20;99.90;;;;;;4962257;28;20176;-81
2023/10/09 01:24:03;;;;;;;0.10;0.10;;;15.20;99.90;;;;;;4963323;28;20212;-81
2023/10/09 01:26:48;;;;;;;0.10;0.10;;;15.20;99.90;;;;;;4963798;28;20177;-81
2023/10/09 01:29:19;;;;;;;0.10;0.10;;;15.10;99.90;;;;;;4960534;28;20204;-81
2023/10/09 01:31:55;;;;;;;0.10;0.10;;;15.10;99.90;;;;;;4963274;28;20180;-81
2023/10/09 01:34:38;;;;;;;0.10;0.10;;;15.20;99.90;;;;;;4964388;28;20204;-81
2023/10/09 01:37:15;;;;;;;0.10;0.10;;;15.10;99.90;;;;;;4961596;28;20194;-81
2023/10/09 01:39:42;;;;;;;0.10;0.10;;;15.10;99.90;;;;;;4962536;28;20726;-81
2023/10/09 01:42:09;;;;;;;0.10;0.10;;;15.10;99.90;;;;;;4962007;28;20214;-81
2023/10/09 01:44:34;;;;;;;14.57;13.27;;;15.10;99.90;;;;;;4964472;28;20258;-80
2023/10/09 01:47:07;;;;;;;0.10;0.10;;;15.10;99.90;;;;;;4962416;28;20193;-80
2023/10/09 01:49:43;;;;;;;0.10;0.10;;;15.00;99.90;;;;;;4963526;28;20213;-81
2023/10/09 01:52:15;;;;;;;0.10;0.10;;;15.00;99.90;;;;;;4962509;28;20664;-80
2023/10/09 01:54:46;;;;;;;0.10;0.10;;;14.90;99.90;;;;;;4963571;28;20226;-80
2023/10/09 01:57:12;;;;;;;0.10;0.10;;;14.90;99.90;;;;;;4960413;28;20177;-80
2023/10/09 01:59:47;;;;;;;0.10;0.10;;;14.90;99.90;;;;;;4964892;28;20196;-82
2023/10/09 02:02:25;;;;;;;0.10;0.10;;;14.70;99.90;;;;;;4962717;28;20184;-80
2023/10/09 02:07:40;;;;;;;0.10;0.10;;;14.60;99.90;;;;;;4964171;28;20211;-81
2023/10/09 02:10:21;;;;;;;0.10;0.10;;;14.70;99.90;;;;;;4961611;28;20204;-82
2023/10/09 02:12:50;;;;;;;0.10;0.10;;;14.60;99.90;;;;;;4964939;28;20215;-81
2023/10/09 02:15:40;;;;;;;0.00;0.00;;;14.60;99.90;;;;;;4964207;28;20179;-81
2023/10/09 02:18:16;;;;;;;0.03;0.03;;;14.60;99.90;;;;;;4964129;28;20190;-81
2023/10/09 02:20:41;;;;;;;0.10;0.10;;;14.70;99.90;;;;;;4964046;28;20184;-82
2023/10/09 02:23:13;;;;;;;0.10;0.10;;;14.70;99.90;;;;;;4962147;28;20232;-82
2023/10/09 02:25:44;;;;;;;0.00;0.00;;;14.80;99.90;;;;;;4964268;28;20177;-81
2023/10/09 02:28:19;;;;;;;0.10;0.10;;;14.80;99.90;;;;;;4960739;28;20563;-81
2023/10/09 02:30:48;;;;;;;0.10;0.10;;;14.50;99.90;;;;;;4964548;28;20179;-81
2023/10/09 02:33:27;;;;;;;0.10;0.10;;;14.60;99.90;;;;;;4978801;28;20206;-81
2023/10/09 02:35:59;;;;;;;0.10;0.10;;;14.60;99.90;;;;;;4961150;28;20188;-81
2023/10/09 02:38:26;;;;;;;0.10;0.10;;;14.60;99.90;;;;;;4963329;28;20194;-80
2023/10/09 02:41:20;;;;;;;0.10;0.10;;;14.60;99.90;;;;;;4960533;28;20203;-81
2023/10/09 02:43:55;;;;;;;0.10;0.10;;;14.70;99.90;;;;;;4962275;28;20577;-81
2023/10/09 02:46:28;;;;;;;0.10;0.10;;;14.80;99.90;;;;;;4965081;28;20180;-80
2023/10/09 02:48:56;;;;;;;0.10;0.10;;;14.80;99.90;;;;;;4963162;28;20706;-81
2023/10/09 02:53:56;;;;;;;0.10;0.10;;;14.80;99.90;;;;;;4964443;28;20207;-81
2023/10/09 02:56:24;;;;;;;0.10;0.10;;;14.70;99.90;;;;;;4963222;28;20187;-81
2023/10/09 02:58:53;;;;;;;0.10;0.10;;;14.70;99.90;;;;;;4962760;28;20228;-80
2023/10/09 03:01:19;;;;;;;0.10;0.10;;;14.50;99.90;;;;;;4960592;28;20213;-81
2023/10/09 03:03:48;;;;;;;0.10;0.10;;;14.60;99.90;;;;;;4961935;28;20258;-81
2023/10/09 03:06:19;;;;;;;0.10;0.10;;;14.60;99.90;;;;;;4961349;28;20193;-80
2023/10/09 03:08:47;;;;;;;0.10;0.10;;;14.60;99.90;;;;;;4961264;28;20203;-80
2023/10/09 03:11:13;;;;;;;0.10;0.10;;;14.60;99.90;;;;;;4958804;28;20196;-81
2023/10/09 03:13:45;;;;;;;0.10;0.10;;;14.70;99.90;;;;;;4959294;28;20209;-81
2023/10/09 03:16:18;;;;;;;0.10;0.10;;;14.80;99.90;;;;;;4958370;28;20554;-80
2023/10/09 03:18:53;;;;;;;0.00;0.00;;;14.70;99.90;;;;;;4960763;28;20210;-81
2023/10/09 03:21:19;;;;;;;0.10;0.10;;;14.70;99.90;;;;;;4959346;28;20196;-81
2023/10/09 03:23:51;;;;;;;0.10;0.10;;;14.70;99.90;;;;;;4959459;28;20216;-81
2023/10/09 03:26:20;;;;;;;0.07;0.07;;;14.70;99.90;;;;;;4960066;28;21151;-81
2023/10/09 03:28:47;;;;;;;0.10;0.10;;;14.80;99.90;;;;;;4956570;28;20677;-81
2023/10/09 03:31:13;;;;;;;0.10;0.10;;;14.70;99.90;;;;;;4959450;28;20192;-81
2023/10/09 03:33:41;;;;;;;0.10;0.10;;;14.80;99.90;;;;;;4959874;28;20712;-81
2023/10/09 03:36:10;;;;;;;0.10;0.10;;;14.80;99.90;;;;;;4959758;28;20644;-81
2023/10/09 03:38:39;;;;;;;0.10;0.10;;;14.90;99.90;;;;;;4958937;28;20196;-81
2023/10/09 03:41:06;;;;;;;0.10;0.10;;;14.90;99.90;;;;;;4958774;28;20605;-81
2023/10/09 03:43:39;;;;;;;0.10;0.10;;;14.90;99.90;;;;;;4961696;28;20241;-81
2023/10/09 03:46:11;;;;;;;0.10;0.10;;;14.90;99.90;;;;;;4958739;28;20302;-81
2023/10/09 03:48:37;;;;;;;0.10;0.10;;;14.90;99.90;;;;;;4959866;28;20204;-81
2023/10/09 03:51:09;;;;;;;0.10;0.10;;;15.00;99.90;;;;;;4960635;28;20227;-81
2023/10/09 03:53:41;;;;;;;0.10;0.10;;;14.90;99.90;;;;;;4959072;28;20212;-81
2023/10/09 03:56:15;;;;;;;0.10;0.10;;;14.90;99.90;;;;;;4957810;28;20192;-82
2023/10/09 03:58:46;;;;;;;0.10;0.10;;;15.00;99.90;;;;;;4959831;28;20242;-81
2023/10/09 04:01:22;;;;;;;0.00;0.00;;;15.00;99.90;;;;;;4958543;28;20258;-81
2023/10/09 04:03:48;;;;;;;0.10;0.10;;;15.00;99.90;;;;;;4959531;28;20271;-81
2023/10/09 04:06:17;;;;;;;0.10;0.10;;;15.00;99.90;;;;;;4958162;28;20266;-81
2023/10/09 04:08:47;;;;;;;0.10;0.10;;;15.00;99.90;;;;;;4958383;28;20264;-81
2023/10/09 04:11:16;;;;;;;0.10;0.10;;;15.00;99.90;;;;;;4957547;28;20184;-81
2023/10/09 04:13:49;;;;;;;0.10;0.10;;;15.00;99.90;;;;;;4958089;28;20211;-81
2023/10/09 04:16:33;;;;;;;0.10;0.10;;;15.00;99.90;;;;;;4959264;28;20188;-81
2023/10/09 04:19:06;;;;;;;0.10;0.10;;;15.00;99.90;;;;;;4960290;28;20220;-81
2023/10/09 04:21:35;;;;;;;0.10;0.10;;;15.00;99.90;;;;;;4957883;28;20214;-81
2023/10/09 04:26:46;;;;;;;0.10;0.10;;;14.90;99.90;;;;;;4958049;28;20204;-81
2023/10/09 04:29:26;;;;;;;0.10;0.10;;;14.40;99.90;;;;;;4960995;28;20230;-81
2023/10/09 04:31:52;;;;;;;0.10;0.10;;;14.30;99.90;;;;;;4962423;28;20216;-81
2023/10/09 04:34:22;;;;;;;0.10;0.10;;;14.40;99.90;;;;;;4963721;28;20226;-81
2023/10/09 04:36:56;;;;;;;0.10;0.10;;;14.30;99.90;;;;;;4961365;28;20263;-81
2023/10/09 04:45:20;;;;;;;0.10;0.10;;;14.20;99.90;;;;;;4961424;28;20231;-81
2023/10/09 04:47:57;;;;;;;0.03;0.03;;;14.00;99.90;;;;;;4962446;28;20221;-81
2023/10/09 04:52:55;;;;;;;0.10;0.10;;;14.10;99.90;;;;;;4962613;28;20207;-81
2023/10/09 04:55:27;;;;;;;0.10;0.10;;;14.20;99.90;;;;;;4960773;28;20265;-81
2023/10/09 04:58:08;;;;;;;0.10;0.10;;;14.30;99.90;;;;;;4961230;28;20200;-81
2023/10/09 05:03:06;;;;;;;0.10;0.10;;;14.30;99.90;;;;;;4963351;28;20836;-81
2023/10/09 05:08:22;;;;;;;0.10;0.10;;;14.40;99.90;;;;;;4961522;28;20815;-81
2023/10/09 05:16:37;;;;;;;0.10;0.10;;;14.50;99.90;;;;;;4961497;28;20186;-81
2023/10/09 05:19:06;;;;;;;0.10;0.10;;;14.50;99.90;;;;;;4961586;28;20285;-81
2023/10/09 05:21:44;;;;;;;0.10;0.10;;;14.30;99.90;;;;;;4960225;28;20233;-81
2023/10/09 05:29:34;;;;;;;0.10;0.10;;;13.90;99.90;;;;;;4961578;28;20211;-81
2023/10/09 05:37:17;;;;;;;0.10;0.10;;;14.10;99.90;;;;;;4960926;28;20634;-81
2023/10/09 05:40:21;;;;;;;0.10;0.10;;;14.20;99.90;;;;;;4961145;28;20219;-81
2023/10/09 05:51:09;;;;;;;0.10;0.10;;;14.00;99.90;;;;;;4961769;28;20232;-81
2023/10/09 06:04:20;;;;;;;0.10;0.10;;;14.10;99.90;;;;;;4961813;28;20339;-82
2023/10/09 06:06:46;;;;;;;0.10;0.10;;;14.10;99.90;;;;;;4960702;28;20270;-82
2023/10/09 06:19:28;;;;;;;0.10;0.10;;;14.20;99.90;;;;;;4958886;28;20213;-82
2023/10/09 06:24:42;;;;;;;0.10;0.10;;;14.40;99.90;;;;;;4959821;28;20598;-81
2023/10/09 06:27:12;;;;;;;0.10;0.10;;;14.30;99.90;;;;;;4959290;28;20564;-81
2023/10/09 06:34:56;;;;;;;0.10;0.10;;;14.40;99.90;;;;;;4960888;28;20199;-82
2023/10/09 06:42:57;;;;;;;0.10;0.10;;;14.40;99.90;;;;;;4957229;28;20180;-81
2023/10/09 06:45:20;;;;;;;0.10;0.10;;;14.50;99.90;;;;;;4959932;28;20229;-81
2023/10/09 06:47:55;;;;;;;0.10;0.10;;;14.70;99.90;;;;;;4957351;28;20189;-81
2023/10/09 06:50:25;;;;;;;0.10;0.10;;;14.80;99.90;;;;;;4960953;28;20175;-81
2023/10/09 06:55:51;;;;;;;0.10;0.10;;;14.90;99.90;;;;;;4958327;28;20199;-81
2023/10/09 06:58:27;;;;;;;0.10;0.10;;;15.00;99.90;;;;;;4960604;28;20662;-81
2023/10/09 07:03:29;;;;;;;0.10;0.10;;;15.00;99.90;;;;;;4961685;28;20216;-81
2023/10/09 07:12:20;;;;;;;0.10;0.10;;;15.10;99.90;;;;;;4959464;28;20573;-81
2023/10/09 07:17:01;;;;;;;0.10;0.10;;;15.30;99.90;;;;;;4960471;28;20179;-82
2023/10/09 07:22:03;;;;;;;0.10;0.10;;;15.40;99.90;;;;;;4956390;28;20512;-82
2023/10/09 07:24:43;;;;;;;0.10;0.10;;;15.30;99.90;;;;;;4955580;28;20229;-82
2023/10/09 07:27:14;;;;;;;0.10;0.10;;;15.40;99.90;;;;;;4959516;28;20519;-82
2023/10/09 07:29:49;;;;;;;0.10;0.10;;;15.50;99.90;;;;;;4957755;28;21242;-82
2023/10/09 07:32:20;;;;;;;0.10;0.10;;;15.60;99.90;;;;;;4960158;28;20179;-82
2023/10/09 07:34:52;;;;;;;0.10;0.10;;;15.70;99.90;;;;;;4958403;28;20742;-82
2023/10/09 07:37:23;;;;;;;0.10;0.10;;;15.80;99.90;;;;;;4958641;28;20549;-82
2023/10/09 07:39:56;;;;;;;0.10;0.10;;;15.90;99.90;;;;;;4960271;28;20200;-82
2023/10/09 07:42:43;;;;;;;0.10;0.10;;;15.60;99.90;;;;;;4957666;28;20617;-82
2023/10/09 07:46:29;;;;;;;0.10;0.10;;;15.40;99.90;;;;;;4958483;28;20208;-81
2023/10/09 07:48:05;;;;;;;0.10;0.10;;;15.30;99.90;;;;;;4960477;28;20227;-81
2023/10/09 07:50:40;;;;;;;0.10;0.10;;;15.30;99.90;;;;;;4959765;28;20183;-81
2023/10/09 07:53:25;;;;;;;0.10;0.10;;;15.50;99.90;;;;;;4957432;28;20227;-81
2023/10/09 07:55:55;;;;;;;0.10;0.10;;;15.60;99.90;;;;;;4959373;28;20267;-81
2023/10/09 07:58:25;;;;;;;0.10;0.10;;;15.90;99.90;;;;;;4957659;28;20177;-81
2023/10/09 08:01:07;;;;;;;0.10;0.10;;;16.20;99.90;;;;;;4958834;28;20212;-82
2023/10/09 08:03:37;;;;;;;0.10;0.10;;;16.50;99.90;;;;;;4920326;28;1059393;-82
2023/10/09 08:11:59;;;;;;;0.10;0.10;;;17.00;99.90;;;;;;4960340;28;20935;-81
2023/10/09 08:17:11;;;;;;;0.10;0.10;;;17.20;99.90;;;;;;4960247;28;20294;-81
2023/10/09 08:19:53;;;;;;;0.10;0.10;;;17.30;99.90;;;;;;4959994;28;20681;-81
2023/10/09 08:24:58;;;;;;;0.10;0.10;;;17.50;99.90;;;;;;4961107;28;20343;-81
2023/10/09 08:27:46;;;;;;;0.10;0.10;;;17.60;99.90;;;;;;4959745;28;20203;-81
2023/10/09 08:32:42;;;;;;;0.10;0.10;;;17.70;99.90;;;;;;4960809;28;20188;-81
2023/10/09 08:35:29;;;;;;;0.10;0.10;;;17.70;99.90;;;;;;4960551;28;20184;-81
2023/10/09 08:37:58;;;;;;;0.10;0.10;;;17.80;99.90;;;;;;4957505;28;20192;-82
2023/10/09 08:40:39;;;;;;;0.10;0.10;;;17.80;99.90;;;;;;4959556;28;20212;-82
2023/10/09 08:43:09;;;;;;;0.10;0.10;;;17.80;99.90;;;;;;4960719;28;20612;-81
2023/10/09 08:45:39;;;;;;;0.10;0.10;;;17.70;99.90;;;;;;4974644;28;20180;-81
2023/10/09 08:48:07;;;;;;;0.10;0.10;;;17.60;99.90;;;;;;4957111;28;20298;-82
2023/10/09 08:50:34;;;;;;;1.30;1.20;;;17.70;99.90;;;;;;4973407;28;20217;-81
2023/10/09 08:53:02;;;;;;;0.10;0.10;;;17.70;99.90;;;;;;4954378;28;20204;-81
2023/10/09 08:55:28;;;;;;;0.10;0.10;;;17.80;99.90;;;;;;4955370;28;20217;-81
2023/10/09 08:57:57;;;;;;;0.10;0.10;;;17.70;99.90;;;;;;4957883;28;20223;-81
2023/10/09 09:00:33;;;;;;;0.00;0.00;;;17.80;99.90;;;;;;4959410;28;20192;-81
2023/10/09 09:03:02;;;;;;;0.10;0.10;;;17.90;99.90;;;;;;4958248;28;20296;-81
2023/10/09 09:05:28;;;;;;;0.10;0.10;;;17.90;99.90;;;;;;4956223;28;20687;-81
2023/10/09 09:07:59;;;;;;;0.10;0.10;;;17.90;99.90;;;;;;4956882;28;20284;-82
2023/10/09 09:10:46;;;;;;;0.10;0.10;;;18.00;99.90;;;;;;4959068;28;20168;-81
2023/10/09 09:13:18;;;;;;;0.10;0.10;;;18.00;99.90;;;;;;4959992;28;20303;-81
2023/10/09 09:15:47;;;;;;;0.10;0.10;;;18.10;99.90;;;;;;4977423;28;20183;-82
2023/10/09 09:18:17;;;;;;;0.10;0.10;;;18.20;99.90;;;;;;4960521;28;20256;-81
2023/10/09 09:20:46;;;;;;;0.10;0.10;;;18.20;99.90;;;;;;4957639;28;20247;-81
2023/10/09 09:23:12;;;;;;;0.10;0.10;;;18.20;99.90;;;;;;4960607;28;20213;-82
2023/10/09 09:25:47;;;;;;;0.00;0.00;;;18.20;99.90;;;;;;4977190;28;20196;-81
2023/10/09 09:28:20;;;;;;;0.10;0.10;;;18.20;99.90;;;;;;4959749;28;20561;-81
2023/10/09 09:30:51;;;;;;;0.10;0.10;;;18.20;99.90;;;;;;4961765;28;20173;-82
2023/10/09 09:33:39;;;;;;;0.10;0.10;;;18.30;99.90;;;;;;4976477;28;20200;-81
2023/10/09 09:36:06;;;;;;;0.10;0.10;;;18.40;99.90;;;;;;4960160;28;20578;-80
2023/10/09 09:38:50;;;;;;;0.10;0.10;;;18.40;99.90;;;;;;4958713;28;20257;-80
2023/10/09 09:41:24;;;;;;;0.10;0.10;;;18.40;99.90;;;;;;4961304;28;20168;-81
2023/10/09 09:44:04;;;;;;;0.10;0.10;;;18.50;99.90;;;;;;4958591;28;20595;-80
2023/10/09 09:46:34;;;;;;;0.10;0.10;;;18.60;99.90;;;;;;4960606;28;20823;-81
2023/10/09 09:49:16;;;;;;;0.10;0.10;;;18.60;99.90;;;;;;4960422;28;20346;-81
2023/10/09 09:51:45;;;;;;;0.10;0.10;;;18.60;99.90;;;;;;4960327;28;20268;-81
2023/10/09 09:54:15;;;;;;;0.00;0.00;;;18.70;99.90;;;;;;4958987;28;20201;-81
2023/10/09 09:56:50;;;;;;;0.10;0.10;;;18.70;99.90;;;;;;4961347;28;20194;-81
2023/10/09 09:59:21;;;;;;;0.10;0.10;;;18.80;99.90;;;;;;4959634;28;20187;-80
2023/10/09 10:02:00;;;;;;;0.10;0.10;;;18.70;99.90;;;;;;4975324;28;20218;-81
2023/10/09 10:04:35;;;;;;;0.10;0.10;;;18.80;99.90;;;;;;4957415;28;20226;-81
2023/10/09 10:07:03;;;;;;;0.10;0.10;;;18.90;99.90;;;;;;4959853;28;20186;-81
2023/10/09 10:09:40;;;;;;;0.10;0.10;;;19.00;99.90;;;;;;4958621;28;20954;-81
2023/10/09 10:12:14;;;;;;;0.10;0.10;;;19.10;99.90;;;;;;4960467;28;20196;-82
2023/10/09 10:15:06;;;;;;;0.10;0.10;;;19.20;99.90;;;;;;4957646;28;20749;-82
2023/10/09 10:17:52;;;;;;;0.10;0.10;;;19.30;99.90;;;;;;4959428;28;20183;-81
2023/10/09 10:22:51;;;;;;;0.10;0.10;;;19.40;99.90;;;;;;4960005;28;20197;-81
2023/10/09 10:25:32;;;;;;;0.10;0.10;;;19.50;99.90;;;;;;4960185;28;20240;-81
2023/10/09 10:31:04;;;;;;;0.10;0.10;;;19.70;99.90;;;;;;4958823;28;20184;-81
2023/10/09 10:33:55;;;;;;;0.10;0.10;;;19.90;99.90;;;;;;4957011;28;20208;-81
2023/10/09 10:36:29;;;;;;;0.10;0.10;;;20.20;99.90;;;;;;4959541;28;20193;-81
2023/10/09 10:39:05;;;;;;;0.10;0.10;;;20.40;99.90;;;;;;4958487;28;20191;-81
2023/10/09 10:41:36;;;;;;;0.10;0.10;;;20.50;99.90;;;;;;4960021;28;20640;-81
2023/10/09 10:44:33;;;;;;;0.10;0.10;;;20.70;99.90;;;;;;4960917;28;20268;-82
2023/10/09 10:46:59;;;;;;;0.10;0.10;;;20.80;99.90;;;;;;4961334;28;20569;-81
2023/10/09 10:49:36;;;;;;;0.10;0.10;;;20.60;99.90;;;;;;4961750;28;20209;-81
2023/10/09 10:52:18;;;;;;;0.10;0.10;;;20.60;99.90;;;;;;4958586;28;20235;-81
2023/10/09 10:57:19;;;;;;;0.10;0.10;;;21.20;99.90;;;;;;4962444;28;20228;-81
2023/10/09 10:59:45;;;;;;;0.10;0.10;;;21.20;99.90;;;;;;4959250;28;20192;-81
2023/10/09 11:04:45;;;;;;;0.10;0.10;;;20.90;99.90;;;;;;4959044;28;20227;-81
2023/10/09 11:07:24;;;;;;;0.10;0.10;;;20.70;99.90;;;;;;4957220;28;20181;-81
2023/10/09 11:15:37;;;;;;;0.10;0.10;;;20.50;99.90;;;;;;4961188;28;20769;-81
2023/10/09 11:18:19;;;;;;;0.10;0.10;;;21.20;99.90;;;;;;4955934;28;20184;-81
2023/10/09 11:28:57;;;;;;;0.10;0.10;;;22.30;99.90;;;;;;4961232;28;20234;-81
2023/10/09 11:31:23;;;;;;;0.10;0.10;;;22.40;99.90;;;;;;4956578;28;20200;-81
2023/10/09 11:33:53;;;;;;;0.10;0.10;;;22.60;99.90;;;;;;4959924;28;20341;-81
2023/10/09 11:36:32;;;;;;;0.10;0.10;;;22.70;99.90;;;;;;4961153;28;20186;-81
2023/10/09 11:41:44;;;;;;;0.10;0.10;;;22.70;99.90;;;;;;4959773;28;20250;-81
2023/10/09 11:44:18;;;;;;;0.10;0.10;;;22.80;99.90;;;;;;4958730;28;20208;-81
2023/10/09 11:46:58;;;;;;;0.10;0.10;;;22.80;99.90;;;;;;4958444;28;20181;-81
2023/10/09 11:49:44;;;;;;;0.10;0.10;;;22.80;99.90;;;;;;4960868;28;20287;-81
2023/10/09 11:54:35;;;;;;;0.10;0.10;;;23.20;99.90;;;;;;4960984;28;20208;-81
2023/10/09 11:57:01;;;;;;;0.10;0.10;;;23.40;99.90;;;;;;4974355;28;20295;-81
2023/10/09 11:59:30;;;;;;;0.10;0.10;;;23.40;99.90;;;;;;4961385;28;20185;-81
2023/10/09 12:02:00;;;;;;;0.10;0.10;;;23.50;99.90;;;;;;4958067;28;20279;-81
2023/10/09 12:04:30;;;;;;;0.10;0.10;;;23.40;99.90;;;;;;4958196;28;20269;-81
2023/10/09 12:07:06;;;;;;;0.10;0.10;;;23.20;99.90;;;;;;4958609;28;20555;-81
2023/10/09 12:09:34;;;;;;;0.10;0.10;;;23.20;99.90;;;;;;4961476;28;20246;-81
2023/10/09 12:12:02;;;;;;;0.10;0.10;;;23.30;99.90;;;;;;4960308;28;20692;-81
2023/10/09 12:14:33;;;;;;;0.10;0.10;;;23.30;99.90;;;;;;4962019;28;20239;-81
2023/10/09 12:17:07;;;;;;;0.10;0.10;;;23.30;99.90;;;;;;4959497;28;20709;-81
2023/10/09 12:19:34;;;;;;;0.10;0.10;;;23.40;99.90;;;;;;4957334;28;20655;-81
2023/10/09 12:22:03;;;;;;;0.10;0.10;;;23.40;99.90;;;;;;4961436;28;20213;-81
2023/10/09 12:24:35;;;;;;;0.10;0.10;;;23.50;99.90;;;;;;4959960;28;20256;-81
2023/10/09 12:27:01;;;;;;;0.10;0.10;;;23.50;99.90;;;;;;4959553;28;20189;-81
2023/10/09 12:29:32;;;;;;;0.10;0.10;;;23.30;99.90;;;;;;4961104;28;20205;-81
2023/10/09 12:31:58;;;;;;;0.10;0.10;;;23.30;99.90;;;;;;4960902;28;20184;-81
2023/10/09 12:34:26;;;;;;;0.10;0.10;;;23.20;99.90;;;;;;4959611;28;20204;-81
2023/10/09 12:36:53;;;;;;;0.10;0.10;;;23.10;99.90;;;;;;4960481;28;20185;-81
2023/10/09 12:39:19;;;;;;;0.10;0.10;;;23.10;99.90;;;;;;4959674;28;20693;-81
2023/10/09 12:41:45;;;;;;;0.10;0.10;;;23.00;99.90;;;;;;4962640;28;20265;-81
2023/10/09 12:44:14;;;;;;;0.10;0.10;;;23.00;99.90;;;;;;4962200;28;20208;-81
2023/10/09 12:46:41;;;;;;;0.10;0.10;;;23.00;99.90;;;;;;4963526;28;20283;-81
2023/10/09 12:49:07;;;;;;;0.10;0.10;;;23.10;99.90;;;;;;4966302;28;20205;-81
2023/10/09 12:51:32;;;;;;;0.10;0.10;;;23.10;99.90;;;;;;4964550;28;20217;-81
2023/10/09 12:53:58;;;;;;;0.10;0.10;;;23.10;99.90;;;;;;4964632;28;20255;-81
2023/10/09 12:56:32;;;;;;;0.10;0.10;;;23.20;99.90;;;;;;4964915;28;20236;-81
2023/10/09 12:59:01;;;;;;;0.10;0.10;;;23.20;99.90;;;;;;4964694;28;20240;-81
2023/10/09 13:01:42;;;;;;;0.20;0.20;;;23.20;99.90;;;;;;4962808;28;20200;-82
2023/10/09 13:04:11;;;;;;;0.10;0.10;;;23.20;99.90;;;;;;4960161;28;20608;-81
2023/10/09 13:06:43;;;;;;;0.10;0.10;;;23.20;99.90;;;;;;4978467;28;20240;-81
2023/10/09 13:09:13;;;;;;;0.10;0.10;;;23.40;99.90;;;;;;4964064;28;20612;-81
2023/10/09 13:11:43;;;;;;;0.10;0.10;;;23.20;99.90;;;;;;4961697;28;20177;-81
2023/10/09 13:14:21;;;;;;;0.10;0.10;;;23.30;99.90;;;;;;4962069;28;20260;-81
2023/10/09 13:16:50;;;;;;;0.10;0.10;;;23.40;99.90;;;;;;4961567;28;20205;-81
2023/10/09 13:19:17;;;;;;;0.10;0.10;;;23.40;99.90;;;;;;4961011;28;20730;-81
2023/10/09 13:21:43;;;;;;;0.30;0.30;;;23.50;99.90;;;;;;4965854;28;20204;-81
2023/10/09 13:24:24;;;;;;;0.10;0.10;;;23.50;99.90;;;;;;4960410;28;20208;-81
2023/10/09 13:26:52;;;;;;;0.10;0.10;;;23.40;99.90;;;;;;4961417;28;20678;-81
2023/10/09 13:29:22;;;;;;;0.10;0.10;;;23.50;99.90;;;;;;4964730;28;20216;-81
2023/10/09 13:31:49;;;;;;;0.10;0.10;;;23.60;99.90;;;;;;4960821;28;20181;-82
2023/10/09 13:34:17;;;;;;;0.10;0.10;;;23.60;99.90;;;;;;4965035;28;20196;-81
2023/10/09 13:36:58;;;;;;;0.10;0.10;;;23.50;99.90;;;;;;4963469;28;20276;-81
2023/10/09 13:39:24;;;;;;;0.10;0.10;;;23.40;99.90;;;;;;4964596;28;20820;-81
2023/10/09 13:41:57;;;;;;;0.10;0.10;;;23.50;99.90;;;;;;4961809;28;20256;-82
2023/10/09 13:44:28;;;;;;;0.10;0.10;;;23.60;99.90;;;;;;4963984;28;20224;-81
2023/10/09 13:46:55;;;;;;;0.10;0.10;;;23.60;99.90;;;;;;4964475;28;20203;-81
2023/10/09 13:49:22;;;;;;;0.10;0.10;;;23.60;99.90;;;;;;4962177;28;20212;-81
2023/10/09 13:51:50;;;;;;;0.10;0.10;;;23.60;99.90;;;;;;4964321;28;20182;-81
2023/10/09 13:54:21;;;;;;;0.10;0.10;;;23.60;99.90;;;;;;4962642;28;20726;-81
2023/10/09 13:56:52;;;;;;;0.10;0.10;;;23.50;99.90;;;;;;4967186;28;20176;-81
2023/10/09 13:59:24;;;;;;;0.10;0.10;;;23.50;99.90;;;;;;4963360;28;20181;-82
2023/10/09 14:01:50;;;;;;;0.10;0.10;;;23.50;99.90;;;;;;4963593;28;20204;-82
2023/10/09 14:04:19;;;;;;;0.10;0.10;;;23.50;99.90;;;;;;4978115;28;20250;-82
2023/10/09 14:06:45;;;;;;;0.10;0.10;;;23.50;99.90;;;;;;4967217;28;20192;-82
2023/10/09 14:09:11;;;;;;;0.10;0.10;;;23.50;99.90;;;;;;4963443;28;20236;-82
2023/10/09 14:11:39;;;;;;;0.10;0.10;;;23.50;99.90;;;;;;4962738;28;20249;-82
2023/10/09 14:14:09;;;;;;;0.10;0.10;;;23.50;99.90;;;;;;4981855;28;20212;-82
2023/10/09 14:16:42;;;;;;;0.10;0.10;;;23.50;99.90;;;;;;4962698;28;20738;-81
2023/10/09 14:19:12;;;;;;;0.10;0.10;;;23.50;99.90;;;;;;4960656;28;20182;-81
2023/10/09 14:21:40;;;;;;;0.10;0.10;;;23.50;99.90;;;;;;4979117;28;20267;-81
2023/10/09 14:24:15;;;;;;;0.10;0.10;;;23.50;99.90;;;;;;4962885;28;20270;-81
2023/10/09 14:26:41;;;;;;;0.10;0.10;;;23.30;99.90;;;;;;4976329;28;20199;-81
2023/10/09 14:29:07;;;;;;;0.10;0.10;;;23.30;99.90;;;;;;4963084;28;20335;-81
2023/10/09 14:31:38;;;;;;;0.10;0.10;;;23.30;99.90;;;;;;4954889;28;20896;-81
2023/10/09 14:34:05;;;;;;;0.10;0.10;;;23.20;99.90;;;;;;4957635;28;20216;-81
2023/10/09 14:36:33;;;;;;;0.10;0.10;;;23.20;99.90;;;;;;4974749;28;20192;-81
2023/10/09 14:39:00;;;;;;;0.10;0.10;;;23.20;99.90;;;;;;4959847;28;20628;-81
2023/10/09 14:41:27;;;;;;;0.10;0.10;;;23.00;99.90;;;;;;4957314;28;20189;-81
2023/10/09 14:43:52;;;;;;;0.10;0.10;;;22.90;99.90;;;;;;4960125;28;20582;-82
2023/10/09 14:46:26;;;;;;;0.10;0.10;;;22.90;99.90;;;;;;4959879;28;20200;-81
2023/10/09 14:48:53;;;;;;;0.10;0.10;;;22.80;99.90;;;;;;4955741;28;20231;-81
2023/10/09 14:51:26;;;;;;;0.10;0.10;;;22.80;99.90;;;;;;4956182;28;20179;-81
2023/10/09 14:53:57;;;;;;;0.10;0.10;;;22.80;99.90;;;;;;4957977;28;20215;-81
2023/10/09 14:56:28;;;;;;;0.10;0.10;;;22.70;99.90;;;;;;4956655;28;20184;-81
2023/10/09 14:58:56;;;;;;;0.10;0.10;;;22.60;99.90;;;;;;4959023;28;20804;-81
2023/10/09 15:01:24;;;;;;;0.10;0.10;;;22.40;99.90;;;;;;4958980;28;20247;-81
2023/10/09 15:03:52;;;;;;;0.10;0.10;;;22.30;99.90;;;;;;4961362;28;20755;-81
2023/10/09 15:06:18;;;;;;;0.10;0.10;;;22.20;99.90;;;;;;4958258;28;20189;-81
2023/10/09 15:08:45;;;;;;;0.10;0.10;;;22.10;99.90;;;;;;4960787;28;20564;-81
2023/10/09 15:11:11;;;;;;;0.10;0.10;;;22.10;99.90;;;;;;4961344;28;20521;-81
2023/10/09 15:13:39;;;;;;;0.10;0.10;;;22.00;99.90;;;;;;4959381;28;20308;-81
2023/10/09 15:16:05;;;;;;;0.10;0.10;;;22.00;99.90;;;;;;4959212;28;20268;-81
2023/10/09 15:18:33;;;;;;;1.13;1.13;;;21.90;99.90;;;;;;4953101;28;20680;-82
2023/10/09 15:20:59;;;;;;;0.10;0.10;;;21.80;99.90;;;;;;4961015;28;20174;-82
2023/10/09 15:23:25;;;;;;;0.10;0.10;;;21.70;99.90;;;;;;4955682;28;20215;-81
2023/10/09 15:25:52;;;;;;;0.10;0.10;;;21.60;99.90;;;;;;4960404;28;20189;-81
2023/10/09 15:28:22;;;;;;;0.10;0.10;;;21.50;99.90;;;;;;4957530;28;20212;-81
2023/10/09 15:30:49;;;;;;;0.10;0.10;;;21.50;99.90;;;;;;4961503;28;20185;-81
2023/10/09 15:33:16;;;;;;;0.10;0.10;;;21.60;99.90;;;;;;4958433;28;20205;-81
2023/10/09 15:35:46;;;;;;;0.10;0.10;;;21.60;99.90;;;;;;4985967;28;20189;-82
2023/10/09 15:38:13;;;;;;;0.10;0.10;;;21.60;99.90;;;;;;4959137;28;20204;-82
2023/10/09 15:40:41;;;;;;;0.10;0.10;;;21.60;99.90;;;;;;4958466;28;20744;-81